Bengough, Canada
Current Conditions -  °F | °C
As of 4:00 PM on Saturday 25 Oct 2014 (Local Time) from CYQR Reporting Station
Broken Clouds Broken Clouds  
Wind Chill: 55°   Ceiling: 25000
Heat Index: 55°   Visibility: 15mi
Dew Point: 32°   Wind: 6mph
Humidity: 41%   Direction: 70°ENE
Pressure: 29.96"   Gusts: NA
Location:  49.4°N, 105.12°W
Report Text: CYQR 252200Z 07005KT 15SM FEW100 BKN250 13/M00 A2996 RMK AC1CI7 AC TR SLP165 DENSITY ALT 2000FT
Loading
Personal Weather Stations






























Interactive Weather Map
Tropical Storm Tracking
New forecast layout! Learn more

10-Day Weather Forecast

Advertisements
Track Severe Weather on mobile